createdAt,value
2019-03-12T00:00:11.171Z,46.20
2019-03-12T00:02:43.480Z,46.30
2019-03-12T00:05:14.000Z,46.30
2019-03-12T00:07:44.479Z,46.30
2019-03-12T00:10:14.971Z,46.50
2019-03-12T00:12:45.508Z,46.30
2019-03-12T00:15:16.409Z,46.40
2019-03-12T00:17:47.046Z,46.40
2019-03-12T00:20:17.676Z,46.50
2019-03-12T00:22:48.229Z,46.60
2019-03-12T00:25:18.706Z,46.50
2019-03-12T00:27:49.320Z,46.50
2019-03-12T00:30:19.886Z,46.60
2019-03-12T00:32:55.567Z,46.60
2019-03-12T00:35:25.327Z,46.60
2019-03-12T00:37:55.948Z,46.70
2019-03-12T00:40:26.340Z,46.70
2019-03-12T00:42:56.829Z,46.70
2019-03-12T00:45:27.474Z,46.70
2019-03-12T00:47:57.965Z,46.70
2019-03-12T00:50:28.465Z,46.70
2019-03-12T00:52:59.158Z,46.80
2019-03-12T00:55:29.700Z,46.90
2019-03-12T00:58:00.381Z,47.00
2019-03-12T01:00:30.831Z,47.10
2019-03-12T01:03:01.429Z,47.00
2019-03-12T01:05:32.024Z,47.00
2019-03-12T01:08:02.630Z,47.00
2019-03-12T01:10:33.426Z,46.90
2019-03-12T01:13:14.716Z,47.00
2019-03-12T01:15:45.221Z,46.90
2019-03-12T01:18:15.825Z,47.00
2019-03-12T01:20:46.457Z,46.80
2019-03-12T01:23:17.178Z,46.80
2019-03-12T01:25:47.660Z,46.80
2019-03-12T01:28:18.203Z,46.80
2019-03-12T01:30:48.891Z,46.80
2019-03-12T01:33:19.320Z,46.70
2019-03-12T01:35:49.944Z,46.90
2019-03-12T01:38:20.395Z,46.70
2019-03-12T01:40:50.890Z,46.90
2019-03-12T01:43:21.536Z,46.80
2019-03-12T01:45:52.029Z,46.80
2019-03-12T01:48:22.517Z,46.90
2019-03-12T01:50:53.171Z,46.90
2019-03-12T01:53:23.674Z,47.00
2019-03-12T01:55:54.377Z,47.10
2019-03-12T01:58:24.828Z,47.10
2019-03-12T02:00:55.809Z,47.00
2019-03-12T02:03:26.252Z,47.20
2019-03-12T02:05:56.872Z,47.20
2019-03-12T02:08:27.471Z,47.20
2019-03-12T02:10:57.971Z,47.10
2019-03-12T02:13:28.649Z,47.10
2019-03-12T02:15:59.064Z,47.10
2019-03-12T02:18:29.592Z,47.30
2019-03-12T02:21:00.200Z,47.30
2019-03-12T02:23:30.771Z,47.30
2019-03-12T02:26:01.305Z,47.20
2019-03-12T02:28:31.934Z,47.30
2019-03-12T02:31:02.474Z,47.20
2019-03-12T02:33:33.081Z,47.10
2019-03-12T02:36:03.637Z,47.10
2019-03-12T02:38:34.156Z,47.20
2019-03-12T02:41:04.641Z,47.20
2019-03-12T02:43:35.191Z,47.30
2019-03-12T02:46:05.687Z,47.30
2019-03-12T02:48:36.369Z,47.40
2019-03-12T02:51:06.838Z,47.40
2019-03-12T02:53:37.390Z,48.10
2019-03-12T02:56:07.860Z,47.40
2019-03-12T02:58:38.304Z,48.10
2019-03-12T03:01:08.808Z,47.40
2019-03-12T03:03:40.730Z,47.40
2019-03-12T03:06:19.576Z,47.40
2019-03-12T03:08:50.103Z,47.40
2019-03-12T03:11:20.757Z,47.50
2019-03-12T03:13:51.354Z,47.60
2019-03-12T03:16:24.143Z,47.60
2019-03-12T03:18:54.016Z,47.70
2019-03-12T03:21:24.515Z,47.70
2019-03-12T03:23:54.981Z,47.90
2019-03-12T03:26:25.628Z,47.90
2019-03-12T03:28:56.139Z,47.90
2019-03-12T03:31:26.726Z,47.90
2019-03-12T03:33:57.365Z,47.90
2019-03-12T03:36:27.833Z,48.00
2019-03-12T03:38:58.343Z,48.10
2019-03-12T03:41:29.267Z,48.00
2019-03-12T03:43:59.827Z,48.00
2019-03-12T03:46:30.414Z,48.10
2019-03-12T03:49:00.955Z,48.00
2019-03-12T03:51:31.544Z,48.00
2019-03-12T03:54:03.149Z,48.10
2019-03-12T03:56:33.616Z,48.20
2019-03-12T03:59:04.272Z,48.10
2019-03-12T04:01:34.789Z,48.20
2019-03-12T04:04:05.325Z,48.20
2019-03-12T04:06:35.835Z,48.10
2019-03-12T04:09:07.227Z,48.30
2019-03-12T04:11:38.281Z,48.30
2019-03-12T04:14:08.715Z,48.30
2019-03-12T04:16:39.297Z,48.30
2019-03-12T04:19:10.107Z,48.40
2019-03-12T04:21:40.614Z,48.40
2019-03-12T04:24:11.118Z,48.50
2019-03-12T04:26:41.672Z,48.60
2019-03-12T04:29:12.711Z,48.50
2019-03-12T04:31:43.331Z,48.70
2019-03-12T04:34:25.836Z,48.70
2019-03-12T04:36:56.310Z,48.70
2019-03-12T04:39:26.859Z,48.90
2019-03-12T04:41:57.436Z,48.70
2019-03-12T04:44:27.910Z,48.70
2019-03-12T04:46:58.547Z,48.80
2019-03-12T04:49:28.998Z,48.70
2019-03-12T04:51:59.537Z,48.80
2019-03-12T04:54:30.035Z,48.80
2019-03-12T04:57:00.506Z,48.80
2019-03-12T04:59:31.077Z,48.70
2019-03-12T05:02:01.634Z,48.70
2019-03-12T05:04:32.139Z,48.70
2019-03-12T05:07:03.786Z,48.70
2019-03-12T05:09:34.313Z,48.70
2019-03-12T05:12:04.829Z,48.70
2019-03-12T05:14:35.788Z,48.70
2019-03-12T05:17:32.453Z,48.70
2019-03-12T05:20:02.913Z,48.80
2019-03-12T05:22:33.426Z,48.80
2019-03-12T05:25:04.055Z,48.20
2019-03-12T05:27:34.569Z,48.70
2019-03-12T05:30:06.521Z,48.80
2019-03-12T05:32:37.022Z,48.80
2019-03-12T05:35:07.637Z,48.80
2019-03-12T05:37:38.098Z,48.80
2019-03-12T05:40:09.353Z,48.80
2019-03-12T05:42:39.986Z,48.80
2019-03-12T05:45:10.722Z,48.80
2019-03-12T05:47:41.192Z,48.70
2019-03-12T05:50:12.472Z,48.80
2019-03-12T05:52:42.887Z,48.80
2019-03-12T05:55:14.351Z,48.70
2019-03-12T05:57:44.972Z,48.80
2019-03-12T06:00:15.855Z,48.70
2019-03-12T06:02:46.438Z,48.60
2019-03-12T06:05:16.988Z,48.70
2019-03-12T06:07:47.506Z,48.70
2019-03-12T06:10:18.159Z,48.80
2019-03-12T06:12:48.662Z,48.80
2019-03-12T06:15:19.516Z,48.90
2019-03-12T06:17:50.202Z,48.90
2019-03-12T06:20:20.620Z,48.90
2019-03-12T06:22:51.144Z,48.90
2019-03-12T06:25:21.698Z,48.90
2019-03-12T06:27:52.275Z,49.00
2019-03-12T06:30:25.742Z,48.80
2019-03-12T06:32:58.892Z,48.90
2019-03-12T06:35:57.373Z,48.80
2019-03-12T06:38:52.841Z,48.90
2019-03-12T06:41:30.682Z,48.70
2019-03-12T06:44:12.946Z,48.60
2019-03-12T06:47:09.824Z,48.60
2019-03-12T06:50:11.583Z,48.50
2019-03-12T06:53:07.151Z,48.40
2019-03-12T06:55:47.201Z,48.50
2019-03-12T06:58:43.181Z,48.50
2019-03-12T07:01:31.328Z,49.00
2019-03-12T07:04:32.989Z,48.50
2019-03-12T07:07:34.386Z,48.50
2019-03-12T07:10:30.488Z,48.40
2019-03-12T07:13:19.877Z,48.40
2019-03-12T07:16:12.404Z,48.90
2019-03-12T07:18:52.187Z,48.40
2019-03-12T07:21:50.423Z,48.40
2019-03-12T07:24:45.825Z,48.50
2019-03-12T07:27:35.248Z,48.50
2019-03-12T07:30:25.302Z,48.50
2019-03-12T07:33:02.470Z,48.50
2019-03-12T07:36:08.039Z,48.50
2019-03-12T07:38:57.505Z,48.50
2019-03-12T07:41:35.016Z,48.50
2019-03-12T07:44:27.163Z,48.50
2019-03-12T07:47:08.485Z,48.50
2019-03-12T07:49:49.074Z,48.40
2019-03-12T07:52:32.556Z,49.00
2019-03-12T07:55:13.449Z,48.40
2019-03-12T07:58:16.167Z,48.30
2019-03-12T08:01:05.240Z,48.60
2019-03-12T08:04:00.459Z,48.00
2019-03-12T08:07:01.984Z,47.90
2019-03-12T08:10:01.349Z,47.80
2019-03-12T08:12:57.592Z,47.80
2019-03-12T08:15:53.266Z,47.50
2019-03-12T08:18:57.912Z,47.30
2019-03-12T08:21:51.929Z,47.00
2019-03-12T08:24:50.267Z,46.80
2019-03-12T08:27:33.596Z,46.80
2019-03-12T08:30:21.966Z,46.70
2019-03-12T08:33:20.396Z,46.80
2019-03-12T08:36:00.208Z,46.80
2019-03-12T08:38:52.422Z,46.80
2019-03-12T08:41:40.633Z,46.80
2019-03-12T08:44:30.101Z,46.70
2019-03-12T08:47:12.433Z,46.70
2019-03-12T08:49:53.785Z,46.60
2019-03-12T08:52:43.250Z,46.50
2019-03-12T08:55:48.108Z,46.40
2019-03-12T08:58:46.795Z,46.40
2019-03-12T09:01:48.282Z,46.30
2019-03-12T09:04:49.936Z,46.20
2019-03-12T09:07:45.109Z,46.20
2019-03-12T09:10:46.549Z,46.10
2019-03-12T09:13:35.295Z,46.10
2019-03-12T09:16:21.044Z,46.00
2019-03-12T09:19:04.454Z,45.90
2019-03-12T09:22:03.165Z,45.80
2019-03-12T09:24:54.244Z,45.40
2019-03-12T09:27:44.567Z,45.00
2019-03-12T09:30:28.729Z,44.90
2019-03-12T09:33:07.593Z,44.80
2019-03-12T09:35:56.095Z,44.90
2019-03-12T09:38:37.090Z,44.90
2019-03-12T09:41:19.670Z,45.00
2019-03-12T09:44:12.081Z,45.10
2019-03-12T09:47:07.446Z,44.90
2019-03-12T09:49:56.853Z,44.60
2019-03-12T09:52:51.725Z,44.40
2019-03-12T09:55:31.052Z,44.20
2019-03-12T09:58:23.671Z,44.10
2019-03-12T10:01:16.285Z,43.90
2019-03-12T10:04:24.290Z,43.70
2019-03-12T10:07:19.772Z,43.30
2019-03-12T10:10:20.780Z,43.10
2019-03-12T10:13:01.976Z,43.30
2019-03-12T10:16:00.263Z,43.60
2019-03-12T10:18:52.068Z,43.80
2019-03-12T10:21:45.114Z,43.70
2019-03-12T10:24:41.172Z,43.80
2019-03-12T10:27:56.545Z,43.80
2019-03-12T10:30:56.749Z,43.80
2019-03-12T10:33:39.406Z,43.70
2019-03-12T10:36:41.185Z,43.60
2019-03-12T10:40:01.949Z,43.50
2019-03-12T10:42:37.486Z,43.40
2019-03-12T10:45:17.624Z,44.00
2019-03-12T10:47:48.221Z,44.20
2019-03-12T10:50:18.782Z,45.10
2019-03-12T10:52:49.313Z,45.90
2019-03-12T10:55:19.821Z,46.30
2019-03-12T10:57:50.382Z,46.20
2019-03-12T11:00:21.120Z,45.20
2019-03-12T11:02:51.749Z,44.20
2019-03-12T11:05:22.566Z,43.40
2019-03-12T11:07:56.214Z,43.50
2019-03-12T11:10:26.900Z,43.00
2019-03-12T11:12:57.386Z,42.40
2019-03-12T11:15:27.863Z,41.90
2019-03-12T11:17:58.428Z,41.80
2019-03-12T11:20:28.963Z,41.70
2019-03-12T11:22:59.682Z,41.80
2019-03-12T11:25:30.158Z,42.20
2019-03-12T11:28:00.830Z,43.10
2019-03-12T11:30:31.530Z,44.10
2019-03-12T11:33:02.135Z,45.10
2019-03-12T11:35:39.293Z,45.90
2019-03-12T11:38:05.788Z,46.10
2019-03-12T11:40:36.443Z,45.70
2019-03-12T11:43:07.986Z,44.90
2019-03-12T11:45:39.171Z,43.90
2019-03-12T11:48:10.245Z,43.30
2019-03-12T11:50:41.037Z,42.50
2019-03-12T11:53:11.720Z,42.10
2019-03-12T11:55:42.731Z,41.30
2019-03-12T11:58:13.377Z,39.50
2019-03-12T12:00:55.954Z,38.00
2019-03-12T12:03:26.466Z,36.90
2019-03-12T12:05:57.068Z,36.70
2019-03-12T12:08:27.452Z,36.30
2019-03-12T12:10:59.561Z,36.10
2019-03-12T12:13:30.118Z,36.00
2019-03-12T12:16:01.788Z,35.80
2019-03-12T12:18:32.437Z,35.60
2019-03-12T12:21:03.083Z,35.60
2019-03-12T12:23:33.606Z,36.20
2019-03-12T12:26:04.071Z,37.50
2019-03-12T12:28:34.820Z,38.60
2019-03-12T12:31:05.273Z,38.70
2019-03-12T12:33:35.797Z,38.20
2019-03-12T12:36:06.337Z,37.50
2019-03-12T12:38:36.898Z,36.60
2019-03-12T12:41:07.832Z,36.10
2019-03-12T12:43:38.336Z,35.60
2019-03-12T12:46:08.780Z,35.50
2019-03-12T12:48:39.325Z,35.20
2019-03-12T12:51:09.749Z,35.10
2019-03-12T12:53:40.268Z,34.80
2019-03-12T12:56:10.844Z,33.90
2019-03-12T12:58:41.468Z,33.90
2019-03-12T13:01:12.184Z,33.80
2019-03-12T13:03:42.736Z,33.60
2019-03-12T13:06:13.337Z,33.60
2019-03-12T13:08:43.810Z,33.80
2019-03-12T13:11:14.345Z,33.80
2019-03-12T13:13:44.849Z,33.90
2019-03-12T13:16:24.948Z,33.70
2019-03-12T13:18:48.518Z,33.90
2019-03-12T13:21:18.962Z,34.10
2019-03-12T13:23:49.596Z,34.20
2019-03-12T13:26:20.044Z,34.30
2019-03-12T13:28:50.577Z,34.20
2019-03-12T13:31:22.039Z,34.10
2019-03-12T13:33:52.525Z,34.20
2019-03-12T13:36:22.989Z,34.20
2019-03-12T13:38:53.587Z,34.00
2019-03-12T13:41:24.378Z,33.90
2019-03-12T13:43:54.905Z,34.00
2019-03-12T13:46:25.558Z,34.20
2019-03-12T13:48:56.289Z,34.50
2019-03-12T13:51:26.946Z,34.50
2019-03-12T13:53:57.411Z,34.70
2019-03-12T13:56:27.888Z,34.80
2019-03-12T13:58:58.478Z,35.00
2019-03-12T14:01:28.967Z,35.00
2019-03-12T14:04:10.196Z,35.10
2019-03-12T14:06:31.599Z,35.30
2019-03-12T14:09:02.131Z,35.50
2019-03-12T14:11:34.309Z,35.40
2019-03-12T14:14:04.845Z,35.30
2019-03-12T14:16:35.255Z,35.30
2019-03-12T14:19:05.749Z,35.20
2019-03-12T14:21:42.774Z,35.20
2019-03-12T14:24:13.270Z,34.80
2019-03-12T14:26:43.706Z,34.30
2019-03-12T14:29:14.184Z,34.20
2019-03-12T14:31:44.689Z,34.20
2019-03-12T14:34:15.197Z,34.30
2019-03-12T14:36:45.738Z,34.30
2019-03-12T14:39:16.522Z,34.20
2019-03-12T14:41:47.293Z,34.30
2019-03-12T14:44:17.814Z,34.20
2019-03-12T14:46:48.330Z,34.30
2019-03-12T14:49:18.925Z,34.30
2019-03-12T14:52:21.816Z,34.30
2019-03-12T14:54:52.393Z,34.30
2019-03-12T14:57:22.957Z,34.20
2019-03-12T14:59:53.541Z,34.00
2019-03-12T15:02:24.073Z,33.60
2019-03-12T15:04:54.589Z,33.40
2019-03-12T15:07:25.282Z,33.40
2019-03-12T15:09:55.860Z,33.40
2019-03-12T15:12:26.269Z,33.50
2019-03-12T15:14:56.761Z,33.70
2019-03-12T15:17:27.354Z,33.70
2019-03-12T15:19:57.924Z,34.40
2019-03-12T15:22:28.746Z,33.70
2019-03-12T15:24:59.310Z,33.90
2019-03-12T15:27:31.382Z,33.90
2019-03-12T15:30:01.946Z,34.00
2019-03-12T15:32:34.157Z,34.20
2019-03-12T15:35:05.072Z,34.30
2019-03-12T15:37:35.722Z,34.30
2019-03-12T15:40:10.936Z,34.20
2019-03-12T15:42:41.818Z,34.20
2019-03-12T15:45:12.415Z,34.10
2019-03-12T15:47:43.020Z,34.30
2019-03-12T15:50:14.721Z,35.10
2019-03-12T15:52:46.246Z,34.60
2019-03-12T15:55:16.777Z,34.70
2019-03-12T15:57:47.254Z,34.70
2019-03-12T16:00:18.046Z,34.70
2019-03-12T16:02:48.588Z,34.70
2019-03-12T16:05:19.059Z,34.70
2019-03-12T16:07:49.701Z,34.90
2019-03-12T16:10:20.387Z,34.80
2019-03-12T16:12:51.179Z,34.80
2019-03-12T16:15:21.712Z,34.90
2019-03-12T16:17:52.330Z,34.90
2019-03-12T16:20:22.861Z,34.90
2019-03-12T16:22:53.345Z,34.90
2019-03-12T16:25:23.886Z,35.00
2019-03-12T16:27:54.445Z,35.10
2019-03-12T16:30:24.889Z,35.20
2019-03-12T16:32:55.296Z,35.10
2019-03-12T16:35:25.864Z,35.20
2019-03-12T16:37:56.395Z,35.10
2019-03-12T16:40:27.077Z,35.20
2019-03-12T16:42:57.480Z,35.10
2019-03-12T16:45:27.941Z,35.10
2019-03-12T16:47:58.496Z,35.10
2019-03-12T16:50:29.136Z,35.90
2019-03-12T16:52:59.672Z,35.10
2019-03-12T16:55:30.197Z,35.20
2019-03-12T16:58:00.781Z,35.10
2019-03-12T17:00:31.463Z,35.20
2019-03-12T17:03:02.037Z,35.20
2019-03-12T17:05:32.575Z,35.20
2019-03-12T17:08:03.178Z,35.20
2019-03-12T17:10:33.716Z,35.80
2019-03-12T17:13:04.476Z,35.20
2019-03-12T17:15:34.928Z,35.30
2019-03-12T17:18:05.785Z,35.20
2019-03-12T17:20:36.389Z,35.20
2019-03-12T17:23:09.564Z,35.10
2019-03-12T17:25:40.708Z,36.00
2019-03-12T17:28:11.493Z,35.50
2019-03-12T17:30:42.005Z,35.30
2019-03-12T17:33:12.729Z,35.40
2019-03-12T17:35:43.288Z,35.40
2019-03-12T17:38:13.791Z,35.30
2019-03-12T17:40:44.438Z,35.40
2019-03-12T17:43:15.052Z,35.40
2019-03-12T17:45:45.855Z,35.30
2019-03-12T17:48:16.410Z,35.30
2019-03-12T17:50:47.065Z,35.30
2019-03-12T17:53:17.648Z,35.40
2019-03-12T17:55:48.188Z,35.40
2019-03-12T17:58:18.926Z,35.40
2019-03-12T18:00:49.626Z,35.40
2019-03-12T18:03:20.442Z,35.40
2019-03-12T18:05:52.433Z,35.50
2019-03-12T18:08:24.517Z,35.50
2019-03-12T18:10:55.029Z,35.50
2019-03-12T18:13:28.226Z,35.60
2019-03-12T18:15:58.858Z,35.60
2019-03-12T18:18:29.475Z,35.60
2019-03-12T18:21:00.022Z,35.70
2019-03-12T18:23:30.735Z,35.60
2019-03-12T18:26:02.342Z,35.50
2019-03-12T18:28:33.917Z,35.60
2019-03-12T18:31:04.637Z,35.70
2019-03-12T18:33:37.569Z,35.70
2019-03-12T18:36:08.102Z,35.70
2019-03-12T18:38:41.778Z,35.60
2019-03-12T18:41:13.735Z,35.70
2019-03-12T18:43:44.321Z,35.90
2019-03-12T18:46:14.848Z,35.90
2019-03-12T18:48:45.448Z,35.90
2019-03-12T18:51:15.916Z,36.00
2019-03-12T18:53:47.998Z,36.00
2019-03-12T18:56:18.609Z,36.10
2019-03-12T18:58:51.732Z,36.10
2019-03-12T19:01:22.208Z,36.10
2019-03-12T19:03:52.875Z,36.10
2019-03-12T19:06:23.436Z,36.20
2019-03-12T19:08:54.059Z,36.20
2019-03-12T19:11:26.084Z,36.20
2019-03-12T19:13:56.880Z,36.30
2019-03-12T19:16:27.491Z,36.30
2019-03-12T19:18:58.434Z,36.40
2019-03-12T19:21:29.687Z,36.40
2019-03-12T19:24:00.374Z,36.40
2019-03-12T19:26:30.994Z,36.30
2019-03-12T19:29:02.527Z,36.50
2019-03-12T19:31:50.764Z,36.50
2019-03-12T19:34:35.601Z,36.40
2019-03-12T19:37:07.268Z,36.50
2019-03-12T19:39:38.274Z,36.50
2019-03-12T19:42:09.191Z,36.60
2019-03-12T19:44:39.753Z,36.40
2019-03-12T19:47:11.572Z,36.60
2019-03-12T19:49:42.290Z,36.50
2019-03-12T19:52:13.047Z,36.40
2019-03-12T19:54:44.317Z,36.30
2019-03-12T19:57:16.326Z,36.30
2019-03-12T19:59:46.964Z,36.30
2019-03-12T20:02:18.609Z,36.30
2019-03-12T20:04:49.111Z,36.30
2019-03-12T20:07:19.750Z,36.30
2019-03-12T20:10:37.401Z,36.40
2019-03-12T20:13:43.817Z,36.60
2019-03-12T20:17:08.138Z,36.60
2019-03-12T20:20:04.024Z,36.60
2019-03-12T20:23:14.357Z,36.60
2019-03-12T20:26:24.980Z,36.60
2019-03-12T20:29:35.365Z,36.70
2019-03-12T20:32:29.731Z,36.70
2019-03-12T20:35:46.274Z,36.70
2019-03-12T20:38:56.632Z,36.60
2019-03-12T20:42:19.591Z,36.50
2019-03-12T20:45:33.848Z,36.60
2019-03-12T20:48:46.648Z,36.50
2019-03-12T20:52:03.379Z,36.60
2019-03-12T20:55:27.200Z,36.70
2019-03-12T20:58:50.171Z,36.60
2019-03-12T21:01:59.985Z,36.60
2019-03-12T21:05:21.525Z,36.60
2019-03-12T21:08:54.388Z,36.60
2019-03-12T21:12:07.328Z,36.60
2019-03-12T21:15:34.609Z,36.70
2019-03-12T21:18:34.708Z,36.60
2019-03-12T21:21:39.908Z,36.70
2019-03-12T21:24:54.825Z,36.70
2019-03-12T21:27:35.258Z,36.80
2019-03-12T21:30:06.351Z,36.90
2019-03-12T21:32:38.756Z,36.80
2019-03-12T21:35:10.838Z,36.70
2019-03-12T21:37:41.946Z,36.70
2019-03-12T21:40:12.951Z,36.80
2019-03-12T21:42:44.965Z,36.80
2019-03-12T21:45:15.926Z,36.70
2019-03-12T21:47:46.594Z,36.80
2019-03-12T21:50:17.142Z,36.80
2019-03-12T21:52:47.645Z,36.80
2019-03-12T21:55:18.160Z,36.80
2019-03-12T21:57:48.806Z,36.80
2019-03-12T22:00:19.677Z,36.90
2019-03-12T22:02:50.502Z,36.90
2019-03-12T22:05:21.084Z,36.90
2019-03-12T22:07:51.738Z,36.90
2019-03-12T22:10:22.429Z,36.90
2019-03-12T22:12:53.191Z,36.80
2019-03-12T22:15:23.917Z,36.80
2019-03-12T22:17:54.615Z,36.90
2019-03-12T22:20:25.180Z,36.90
2019-03-12T22:23:15.026Z,37.10
2019-03-12T22:25:45.543Z,37.20
2019-03-12T22:28:16.577Z,37.20
2019-03-12T22:30:50.176Z,37.10
2019-03-12T22:33:20.770Z,37.30
2019-03-12T22:35:51.304Z,37.30
2019-03-12T22:38:21.826Z,37.40
2019-03-12T22:40:52.309Z,37.40
2019-03-12T22:43:22.902Z,37.40
2019-03-12T22:45:53.422Z,37.40
2019-03-12T22:48:24.789Z,37.50
2019-03-12T22:50:55.742Z,37.40
2019-03-12T22:53:26.275Z,37.50
2019-03-12T22:55:56.767Z,37.60
2019-03-12T22:58:27.275Z,37.60
2019-03-12T23:01:16.014Z,37.70
2019-03-12T23:04:04.702Z,37.80
2019-03-12T23:06:52.973Z,37.80
2019-03-12T23:09:41.333Z,37.90
2019-03-12T23:12:16.560Z,37.90
2019-03-12T23:14:47.432Z,38.00
2019-03-12T23:17:19.776Z,38.00
2019-03-12T23:19:50.444Z,38.10
2019-03-12T23:22:20.998Z,38.00
2019-03-12T23:24:51.521Z,38.10
2019-03-12T23:27:22.443Z,38.10
2019-03-12T23:29:52.888Z,38.10
2019-03-12T23:32:23.607Z,38.10
2019-03-12T23:34:54.100Z,38.20
2019-03-12T23:37:24.818Z,38.20
2019-03-12T23:39:55.258Z,38.10
2019-03-12T23:42:25.679Z,38.20
2019-03-12T23:44:56.042Z,38.20
2019-03-12T23:47:26.591Z,38.20
2019-03-12T23:49:59.235Z,38.20
2019-03-12T23:52:29.837Z,38.20
2019-03-12T23:55:00.359Z,38.20
2019-03-12T23:57:30.716Z,38.20
